Time;durP1;ratioP1;P1;durP2;ratioP2;P2;SDS_P1;SDS_P2;PMS_P1;PMS_P2;Temp;Humidity;BMP_temperature;BMP_pressure;BME280_temperature;BME280_humidity;BME280_pressure;Samples;Min_cycle;Max_cycle;Signal;HPM_P1;HPM_P2
2022/10/21 00:01:27;;;;;;;13.70;9.07;;;;;;;;;;5044769;28;20170;-73
2022/10/21 00:03:54;;;;;;;17.67;11.53;;;;;;;;;;5048077;28;20577;-74
2022/10/21 00:06:20;;;;;;;23.00;13.93;;;;;;;;;;5044565;28;20642;-74
2022/10/21 00:08:46;;;;;;;14.17;10.27;;;;;;;;;;5040992;28;20179;-75
2022/10/21 00:11:12;;;;;;;21.60;12.27;;;;;;;;;;5039040;28;20206;-74
2022/10/21 00:13:39;;;;;;;17.23;9.80;;;;;;;;;;5041510;28;20210;-74
2022/10/21 00:16:08;;;;;;;12.13;8.93;;;;;;;;;;5036382;28;20186;-74
2022/10/21 00:18:35;;;;;;;15.93;8.97;;;;;;;;;;5042912;28;20183;-74
2022/10/21 00:21:04;;;;;;;11.17;7.90;;;;;;;;;;5045313;28;20201;-74
2022/10/21 00:23:30;;;;;;;16.23;9.47;;;;;;;;;;5043948;28;20229;-74
2022/10/21 00:25:57;;;;;;;13.97;8.57;;;;;;;;;;5042288;28;20742;-74
2022/10/21 00:28:23;;;;;;;15.05;9.50;;;;;;;;;;5041344;28;20523;-74
2022/10/21 00:30:49;;;;;;;15.83;8.60;;;;;;;;;;5044601;28;20204;-74
2022/10/21 00:33:15;;;;;;;11.37;8.33;;;;;;;;;;5042268;28;20216;-74
2022/10/21 00:35:41;;;;;;;18.63;9.53;;;;;;;;;;5044639;28;20727;-75
2022/10/21 00:38:08;;;;;;;15.60;8.93;;;;;;;;;;5045783;28;20176;-74
2022/10/21 00:40:34;;;;;;;13.50;8.87;;;;;;;;;;5035905;28;20206;-75
2022/10/21 00:43:00;;;;;;;11.97;8.07;;;;;;;;;;5044835;28;20693;-75
2022/10/21 00:45:27;;;;;;;13.50;9.67;;;;;;;;;;5046381;28;20193;-74
2022/10/21 00:48:05;;;;;;;15.13;9.70;;;;;;;;;;5045622;28;20672;-75
2022/10/21 00:51:00;;;;;;;14.80;9.47;;;;;;;;;;5040578;28;20229;-75
2022/10/21 00:53:27;;;;;;;16.33;9.33;;;;;;;;;;5027726;28;20267;-75
2022/10/21 00:55:57;;;;;;;15.33;10.67;;;;;;;;;;5032154;28;20236;-75
2022/10/21 00:58:24;;;;;;;15.77;10.37;;;;;;;;;;5045852;28;20905;-75
2022/10/21 01:00:51;;;;;;;15.13;10.87;;;;;;;;;;5033552;28;20252;-75
2022/10/21 01:03:17;;;;;;;16.87;10.70;;;;;;;;;;5044070;28;20236;-74
2022/10/21 01:06:04;;;;;;;14.97;9.90;;;;;;;;;;5041750;28;20278;-74
2022/10/21 01:08:30;;;;;;;15.27;9.03;;;;;;;;;;5047463;28;20281;-74
2022/10/21 01:10:57;;;;;;;16.60;9.57;;;;;;;;;;5047878;28;20289;-75
2022/10/21 01:13:42;;;;;;;15.27;9.10;;;;;;;;;;5047729;28;20198;-75
2022/10/21 01:16:14;;;;;;;12.77;9.37;;;;;;;;;;5047657;28;20189;-74
2022/10/21 01:18:40;;;;;;;13.73;8.67;;;;;;;;;;5037353;28;20597;-75
2022/10/21 01:21:20;;;;;;;10.40;7.80;;;;;;;;;;5044453;28;21013;-74
2022/10/21 01:23:55;;;;;;;12.20;8.33;;;;;;;;;;5037576;28;20236;-75
2022/10/21 01:26:32;;;;;;;14.03;9.23;;;;;;;;;;5036875;28;20257;-75
2022/10/21 01:29:01;;;;;;;13.70;9.63;;;;;;;;;;5035838;28;20358;-75
2022/10/21 01:31:39;;;;;;;12.97;8.67;;;;;;;;;;5037424;28;20359;-75
2022/10/21 01:34:23;;;;;;;15.70;9.10;;;;;;;;;;5030493;28;20344;-75
2022/10/21 01:36:53;;;;;;;14.63;9.10;;;;;;;;;;5043149;28;20614;-75
2022/10/21 01:39:25;;;;;;;11.67;9.30;;;;;;;;;;5043474;28;20193;-75
2022/10/21 01:41:57;;;;;;;11.23;8.87;;;;;;;;;;5038400;28;20213;-75
2022/10/21 01:44:26;;;;;;;16.33;9.53;;;;;;;;;;5043871;28;20217;-74
2022/10/21 01:46:57;;;;;;;15.43;10.17;;;;;;;;;;5037916;28;20564;-74
2022/10/21 01:49:28;;;;;;;13.07;10.50;;;;;;;;;;5045497;28;20668;-75
2022/10/21 01:51:54;;;;;;;17.23;10.77;;;;;;;;;;5039038;28;20234;-75
2022/10/21 01:54:23;;;;;;;13.30;10.90;;;;;;;;;;5032937;28;20249;-75
2022/10/21 01:56:49;;;;;;;13.97;10.17;;;;;;;;;;5033022;28;20561;-75
2022/10/21 01:59:17;;;;;;;12.70;10.00;;;;;;;;;;5038752;28;20182;-74
2022/10/21 02:01:43;;;;;;;15.73;10.47;;;;;;;;;;5043576;28;20558;-75
2022/10/21 02:04:11;;;;;;;14.40;9.37;;;;;;;;;;5042477;28;20213;-74
2022/10/21 02:06:37;;;;;;;15.20;11.00;;;;;;;;;;5041875;28;20654;-75
2022/10/21 02:09:03;;;;;;;18.97;11.30;;;;;;;;;;5037459;28;20186;-74
2022/10/21 02:11:31;;;;;;;15.17;10.47;;;;;;;;;;5045535;28;20236;-75
2022/10/21 02:14:00;;;;;;;13.90;10.60;;;;;;;;;;5039084;28;20574;-75
2022/10/21 02:16:29;;;;;;;11.83;9.63;;;;;;;;;;5037197;28;20192;-74
2022/10/21 02:18:56;;;;;;;12.70;9.60;;;;;;;;;;5041334;28;20182;-75
2022/10/21 02:21:24;;;;;;;12.30;9.83;;;;;;;;;;5042140;28;20273;-74
2022/10/21 02:24:09;;;;;;;12.53;9.80;;;;;;;;;;5033817;28;20218;-74
2022/10/21 02:26:35;;;;;;;12.37;8.83;;;;;;;;;;5037467;28;20236;-75
2022/10/21 02:29:01;;;;;;;12.47;8.97;;;;;;;;;;5040682;28;20556;-74
2022/10/21 02:31:34;;;;;;;14.63;10.33;;;;;;;;;;5041113;28;20205;-74
2022/10/21 02:34:17;;;;;;;12.40;9.40;;;;;;;;;;5037257;28;20305;-74
2022/10/21 02:36:44;;;;;;;13.37;10.03;;;;;;;;;;5040328;28;20213;-75
2022/10/21 02:39:18;;;;;;;10.47;8.33;;;;;;;;;;5042872;28;20171;-74
2022/10/21 02:41:47;;;;;;;11.43;9.07;;;;;;;;;;5044299;28;20259;-75
2022/10/21 02:44:13;;;;;;;12.53;9.57;;;;;;;;;;5037617;28;20523;-74
2022/10/21 02:46:40;;;;;;;14.50;9.87;;;;;;;;;;5043398;28;20182;-75
2022/10/21 02:49:07;;;;;;;11.70;9.50;;;;;;;;;;5042537;28;20209;-74
2022/10/21 02:51:33;;;;;;;12.03;9.17;;;;;;;;;;5033163;28;20287;-74
2022/10/21 02:54:00;;;;;;;13.40;10.17;;;;;;;;;;5046263;28;20201;-74
2022/10/21 02:56:26;;;;;;;11.17;9.30;;;;;;;;;;5045734;28;20212;-75
2022/10/21 02:58:53;;;;;;;13.30;9.53;;;;;;;;;;5040603;28;20189;-75
2022/10/21 03:01:19;;;;;;;11.90;8.63;;;;;;;;;;5042824;28;20271;-74
2022/10/21 03:03:45;;;;;;;12.23;9.17;;;;;;;;;;5045520;28;20614;-75
2022/10/21 03:06:11;;;;;;;12.43;9.00;;;;;;;;;;5041676;28;20232;-75
2022/10/21 03:08:37;;;;;;;14.73;9.40;;;;;;;;;;5039347;28;20276;-74
2022/10/21 03:11:04;;;;;;;15.37;10.33;;;;;;;;;;5048198;28;20303;-75
2022/10/21 03:13:30;;;;;;;16.27;10.10;;;;;;;;;;5038636;28;20293;-74
2022/10/21 03:15:56;;;;;;;12.00;8.27;;;;;;;;;;5046457;28;20216;-74
2022/10/21 03:18:22;;;;;;;12.47;9.00;;;;;;;;;;5039752;28;20477;-73
2022/10/21 03:20:49;;;;;;;16.77;9.43;;;;;;;;;;5043747;28;20645;-73
2022/10/21 03:23:16;;;;;;;17.87;10.53;;;;;;;;;;5041587;28;20186;-74
2022/10/21 03:25:42;;;;;;;13.80;9.47;;;;;;;;;;5032692;28;20738;-74
2022/10/21 03:28:08;;;;;;;13.13;9.43;;;;;;;;;;5041117;28;20186;-73
2022/10/21 03:30:34;;;;;;;13.33;9.90;;;;;;;;;;5041462;28;20241;-74
2022/10/21 03:33:01;;;;;;;13.33;9.50;;;;;;;;;;5041851;28;20177;-74
2022/10/21 03:35:27;;;;;;;14.17;10.10;;;;;;;;;;5041051;28;20741;-74
2022/10/21 03:37:53;;;;;;;28.97;16.57;;;;;;;;;;5042783;28;20832;-73
2022/10/21 03:40:19;;;;;;;18.47;12.27;;;;;;;;;;5041418;28;20268;-73
2022/10/21 03:42:46;;;;;;;17.03;11.57;;;;;;;;;;5041320;28;21233;-74
2022/10/21 03:45:12;;;;;;;12.80;10.67;;;;;;;;;;5042269;28;20209;-73
2022/10/21 03:47:38;;;;;;;12.90;9.20;;;;;;;;;;5041778;28;20236;-73
2022/10/21 03:50:06;;;;;;;11.33;9.20;;;;;;;;;;5042376;28;20550;-74
2022/10/21 03:52:32;;;;;;;14.03;10.00;;;;;;;;;;5041194;28;20182;-73
2022/10/21 03:54:58;;;;;;;11.63;8.80;;;;;;;;;;5044003;28;20217;-74
2022/10/21 03:57:24;;;;;;;14.23;10.20;;;;;;;;;;5039379;28;20196;-74
2022/10/21 03:59:51;;;;;;;12.87;9.70;;;;;;;;;;5042999;28;20174;-73
2022/10/21 04:02:17;;;;;;;12.43;9.10;;;;;;;;;;5038499;28;20173;-74
2022/10/21 04:04:43;;;;;;;10.47;8.50;;;;;;;;;;5041320;28;20202;-73
2022/10/21 04:07:09;;;;;;;12.33;9.40;;;;;;;;;;5041012;28;20717;-73
2022/10/21 04:09:36;;;;;;;11.03;9.70;;;;;;;;;;5032854;28;20760;-73
2022/10/21 04:12:02;;;;;;;11.93;9.03;;;;;;;;;;5045285;28;20256;-74
2022/10/21 04:14:28;;;;;;;12.90;9.37;;;;;;;;;;5043556;28;20202;-73
2022/10/21 04:16:55;;;;;;;12.33;9.63;;;;;;;;;;5039104;28;20220;-73
2022/10/21 04:19:21;;;;;;;12.70;9.83;;;;;;;;;;5040514;28;20205;-73
2022/10/21 04:21:47;;;;;;;13.53;9.60;;;;;;;;;;5040030;28;20181;-74
2022/10/21 04:24:14;;;;;;;15.87;10.13;;;;;;;;;;5039016;28;20935;-73
2022/10/21 04:26:43;;;;;;;13.03;9.30;;;;;;;;;;5039606;28;20267;-73
2022/10/21 04:29:09;;;;;;;13.17;10.07;;;;;;;;;;5039891;28;20182;-73
2022/10/21 04:31:35;;;;;;;12.17;10.43;;;;;;;;;;5040009;28;20272;-74
2022/10/21 04:34:01;;;;;;;14.30;10.43;;;;;;;;;;5037459;28;20255;-73
2022/10/21 04:36:28;;;;;;;13.20;11.30;;;;;;;;;;5039898;28;20190;-74
2022/10/21 04:38:54;;;;;;;10.70;9.50;;;;;;;;;;5041473;28;20176;-74
2022/10/21 04:41:20;;;;;;;13.00;10.03;;;;;;;;;;5043794;28;20269;-74
2022/10/21 04:43:46;;;;;;;13.63;11.30;;;;;;;;;;5038506;28;20998;-74
2022/10/21 04:46:14;;;;;;;13.57;10.57;;;;;;;;;;5042355;28;20185;-73
2022/10/21 04:48:40;;;;;;;12.73;10.90;;;;;;;;;;5040817;28;20485;-73
2022/10/21 04:51:06;;;;;;;12.50;10.77;;;;;;;;;;5044073;28;20214;-73
2022/10/21 04:53:32;;;;;;;15.23;11.80;;;;;;;;;;5040356;28;20850;-74
2022/10/21 04:55:59;;;;;;;13.57;10.13;;;;;;;;;;5038741;28;20209;-74
2022/10/21 04:58:25;;;;;;;14.53;11.80;;;;;;;;;;5044803;28;20721;-74
2022/10/21 05:00:51;;;;;;;14.03;10.60;;;;;;;;;;5043470;28;20186;-73
2022/10/21 05:03:18;;;;;;;13.43;10.27;;;;;;;;;;5043667;28;20216;-73
2022/10/21 05:05:44;;;;;;;15.03;11.27;;;;;;;;;;5042869;28;20189;-73
2022/10/21 05:08:11;;;;;;;14.73;11.07;;;;;;;;;;5043063;28;20281;-73
2022/10/21 05:10:37;;;;;;;12.03;10.10;;;;;;;;;;5041858;28;20205;-74
2022/10/21 05:13:03;;;;;;;13.93;11.20;;;;;;;;;;5040066;28;20240;-74
2022/10/21 05:15:29;;;;;;;14.30;11.30;;;;;;;;;;5043168;28;20239;-74
2022/10/21 05:17:55;;;;;;;13.57;9.97;;;;;;;;;;5041778;28;20182;-75
2022/10/21 05:20:21;;;;;;;14.20;10.27;;;;;;;;;;5039101;28;20182;-75
2022/10/21 05:22:48;;;;;;;14.43;11.07;;;;;;;;;;5039978;28;20201;-75
2022/10/21 05:25:14;;;;;;;18.10;13.93;;;;;;;;;;5037137;28;20498;-75
2022/10/21 05:27:40;;;;;;;13.97;11.37;;;;;;;;;;5041832;28;20182;-75
2022/10/21 05:30:07;;;;;;;16.77;12.20;;;;;;;;;;5045558;28;20189;-73
2022/10/21 05:32:33;;;;;;;17.63;12.60;;;;;;;;;;5047192;28;20436;-77
2022/10/21 05:34:59;;;;;;;17.00;13.77;;;;;;;;;;5036366;28;20217;-74
2022/10/21 05:37:25;;;;;;;15.60;10.63;;;;;;;;;;5045135;28;20272;-76
2022/10/21 05:39:51;;;;;;;14.37;11.33;;;;;;;;;;5038972;28;20656;-76
2022/10/21 05:42:18;;;;;;;13.57;10.80;;;;;;;;;;5044009;28;20173;-75
2022/10/21 05:44:44;;;;;;;15.03;11.20;;;;;;;;;;5037140;28;20289;-75
2022/10/21 05:47:10;;;;;;;12.93;10.30;;;;;;;;;;5042166;28;20877;-76
2022/10/21 05:49:36;;;;;;;13.40;10.60;;;;;;;;;;5045542;28;20227;-76
2022/10/21 05:52:02;;;;;;;15.38;11.65;;;;;;;;;;5037704;28;20436;-75
2022/10/21 05:54:28;;;;;;;14.33;10.13;;;;;;;;;;5041096;28;20206;-76
2022/10/21 05:56:55;;;;;;;14.40;10.20;;;;;;;;;;5036733;28;20228;-77
2022/10/21 05:59:22;;;;;;;13.07;9.77;;;;;;;;;;5038657;28;20251;-77
2022/10/21 06:01:48;;;;;;;14.70;9.17;;;;;;;;;;5039188;28;20209;-79
2022/10/21 06:04:14;;;;;;;13.17;9.60;;;;;;;;;;5047154;28;20297;-78
2022/10/21 06:06:40;;;;;;;15.13;9.67;;;;;;;;;;5045286;28;20517;-79
2022/10/21 06:09:06;;;;;;;15.80;10.27;;;;;;;;;;5040159;28;20774;-80
2022/10/21 06:11:32;;;;;;;14.33;10.63;;;;;;;;;;5045396;28;20751;-80
2022/10/21 06:13:59;;;;;;;14.43;10.37;;;;;;;;;;5039600;28;20292;-81
2022/10/21 06:16:25;;;;;;;16.67;11.03;;;;;;;;;;5041732;28;20196;-82
2022/10/21 06:18:51;;;;;;;15.10;11.23;;;;;;;;;;5046196;28;20182;-82
2022/10/21 06:21:17;;;;;;;14.63;11.60;;;;;;;;;;5044902;28;20178;-81
2022/10/21 06:23:44;;;;;;;15.50;11.33;;;;;;;;;;5063554;28;20206;-81
2022/10/21 06:26:11;;;;;;;16.03;12.47;;;;;;;;;;5027761;28;20194;-81
2022/10/21 06:28:38;;;;;;;15.57;11.43;;;;;;;;;;5049042;28;20178;-81
2022/10/21 06:31:05;;;;;;;14.30;11.67;;;;;;;;;;5036926;28;20597;-80
2022/10/21 06:33:31;;;;;;;14.03;11.70;;;;;;;;;;5047028;28;20281;-82
2022/10/21 06:35:58;;;;;;;21.77;12.10;;;;;;;;;;5040554;28;20194;-81
2022/10/21 06:38:27;;;;;;;17.60;11.23;;;;;;;;;;5029133;28;20178;-85
2022/10/21 06:41:00;;;;;;;14.80;10.93;;;;;;;;;;5046385;28;20189;-80
2022/10/21 06:43:26;;;;;;;14.83;11.50;;;;;;;;;;5041436;28;20213;-82
2022/10/21 06:45:52;;;;;;;14.50;9.50;;;;;;;;;;5040754;28;20585;-82
2022/10/21 06:48:18;;;;;;;15.93;10.33;;;;;;;;;;5047791;28;20240;-81
2022/10/21 06:50:44;;;;;;;12.00;7.80;;;;;;;;;;5046092;28;20204;-82
2022/10/21 06:53:11;;;;;;;10.67;7.10;;;;;;;;;;5036564;28;20680;-82
2022/10/21 06:55:37;;;;;;;10.47;6.30;;;;;;;;;;5047117;28;20170;-82
2022/10/21 06:58:03;;;;;;;9.57;6.17;;;;;;;;;;5037624;28;20196;-82
2022/10/21 07:00:29;;;;;;;11.93;5.73;;;;;;;;;;5033358;28;20236;-83
2022/10/21 07:02:55;;;;;;;10.90;6.00;;;;;;;;;;5048716;28;20178;-82
2022/10/21 07:05:21;;;;;;;11.33;5.83;;;;;;;;;;5066387;28;20191;-82
2022/10/21 07:07:48;;;;;;;9.37;6.07;;;;;;;;;;5046056;28;20186;-83
2022/10/21 07:10:14;;;;;;;9.30;6.03;;;;;;;;;;5039356;28;20200;-82
2022/10/21 07:12:40;;;;;;;10.47;6.27;;;;;;;;;;5046533;28;20190;-82
2022/10/21 07:15:06;;;;;;;11.90;6.43;;;;;;;;;;5046080;28;20683;-82
2022/10/21 07:17:33;;;;;;;10.87;6.47;;;;;;;;;;5045146;28;20178;-82
2022/10/21 07:19:59;;;;;;;11.93;6.33;;;;;;;;;;5045588;28;20186;-82
2022/10/21 07:22:25;;;;;;;13.47;6.30;;;;;;;;;;5030822;28;20179;-83
2022/10/21 07:24:51;;;;;;;11.93;5.73;;;;;;;;;;5054080;28;20194;-82
2022/10/21 07:27:18;;;;;;;10.80;6.33;;;;;;;;;;5042815;28;20229;-83
2022/10/21 07:29:44;;;;;;;12.60;6.63;;;;;;;;;;5057056;28;20185;-83
2022/10/21 07:32:10;;;;;;;10.13;6.50;;;;;;;;;;5049644;28;20213;-82
2022/10/21 07:34:36;;;;;;;8.73;6.10;;;;;;;;;;5042196;28;20195;-83
2022/10/21 07:37:02;;;;;;;11.53;6.40;;;;;;;;;;5037713;28;20174;-81
2022/10/21 07:39:28;;;;;;;12.47;6.20;;;;;;;;;;5042809;28;20219;-82
2022/10/21 07:41:56;;;;;;;13.47;6.60;;;;;;;;;;5031095;28;20194;-81
2022/10/21 07:44:23;;;;;;;12.17;6.40;;;;;;;;;;5058694;28;20206;-81
2022/10/21 07:46:49;;;;;;;13.10;6.43;;;;;;;;;;5045035;28;20212;-80
2022/10/21 07:49:16;;;;;;;12.57;6.70;;;;;;;;;;5040363;28;20208;-80
2022/10/21 07:51:44;;;;;;;10.73;6.33;;;;;;;;;;5050934;28;20225;-80
2022/10/21 07:54:10;;;;;;;13.37;7.63;;;;;;;;;;5067018;28;20214;-80
2022/10/21 07:56:41;;;;;;;13.67;6.93;;;;;;;;;;5041769;28;20178;-81
2022/10/21 07:59:08;;;;;;;12.23;6.70;;;;;;;;;;5042062;28;20192;-80
2022/10/21 08:01:35;;;;;;;10.40;6.83;;;;;;;;;;5034151;28;20904;-80
2022/10/21 08:04:01;;;;;;;11.07;7.30;;;;;;;;;;5042262;28;20874;-80
2022/10/21 08:06:28;;;;;;;9.90;7.13;;;;;;;;;;5047912;28;20752;-80
2022/10/21 08:08:57;;;;;;;10.77;7.10;;;;;;;;;;5055234;28;20193;-80
2022/10/21 08:11:28;;;;;;;11.80;7.60;;;;;;;;;;5047704;28;20195;-80
2022/10/21 08:13:54;;;;;;;11.73;6.90;;;;;;;;;;5042857;28;20575;-80
2022/10/21 08:16:21;;;;;;;10.60;6.90;;;;;;;;;;5044950;28;20264;-79
2022/10/21 08:18:47;;;;;;;10.40;7.17;;;;;;;;;;5036011;28;20182;-79
2022/10/21 08:21:23;;;;;;;12.50;7.97;;;;;;;;;;5031128;28;20230;-79
2022/10/21 08:23:49;;;;;;;13.83;8.13;;;;;;;;;;5045426;28;20352;-79
2022/10/21 08:26:15;;;;;;;9.63;7.57;;;;;;;;;;5041067;28;20186;-78
2022/10/21 08:28:42;;;;;;;10.43;7.50;;;;;;;;;;5042735;28;20182;-80
2022/10/21 08:31:09;;;;;;;9.93;7.43;;;;;;;;;;5043008;28;20235;-79
2022/10/21 08:33:36;;;;;;;11.47;6.93;;;;;;;;;;5040842;28;20634;-79
2022/10/21 08:36:06;;;;;;;11.60;7.40;;;;;;;;;;5045178;28;20579;-79
2022/10/21 08:38:32;;;;;;;18.47;8.80;;;;;;;;;;5035047;28;20213;-79
2022/10/21 08:40:59;;;;;;;14.47;8.10;;;;;;;;;;5048321;28;20178;-78
2022/10/21 08:43:31;;;;;;;15.27;8.30;;;;;;;;;;5042998;28;20241;-79
2022/10/21 08:46:06;;;;;;;10.57;7.73;;;;;;;;;;5043760;28;20181;-78
2022/10/21 08:48:35;;;;;;;11.30;7.70;;;;;;;;;;5045396;28;20676;-79
2022/10/21 08:51:04;;;;;;;11.63;7.40;;;;;;;;;;5038233;28;20248;-80
2022/10/21 08:53:36;;;;;;;10.67;6.97;;;;;;;;;;5038708;28;20201;-80
2022/10/21 08:56:05;;;;;;;13.97;8.00;;;;;;;;;;5045383;28;20186;-80
2022/10/21 08:58:31;;;;;;;10.97;7.03;;;;;;;;;;5037324;28;20170;-79
2022/10/21 09:01:16;;;;;;;14.47;7.73;;;;;;;;;;5054890;28;20181;-80
2022/10/21 09:04:00;;;;;;;13.93;7.00;;;;;;;;;;5035289;28;20287;-80
2022/10/21 09:06:30;;;;;;;11.90;6.90;;;;;;;;;;5039497;28;20190;-79
2022/10/21 09:09:05;;;;;;;12.20;6.43;;;;;;;;;;5051008;28;20673;-78
2022/10/21 09:11:50;;;;;;;11.07;6.83;;;;;;;;;;5033096;28;20213;-79
2022/10/21 09:14:35;;;;;;;12.00;6.90;;;;;;;;;;5051127;28;20217;-79
2022/10/21 09:17:02;;;;;;;12.07;7.03;;;;;;;;;;5048732;28;20540;-79
2022/10/21 09:19:40;;;;;;;11.67;6.37;;;;;;;;;;5054098;28;20171;-79
2022/10/21 09:22:12;;;;;;;12.07;6.30;;;;;;;;;;5052208;28;20185;-79
2022/10/21 09:24:43;;;;;;;12.47;6.70;;;;;;;;;;5049184;28;20229;-78
2022/10/21 09:27:10;;;;;;;10.23;5.50;;;;;;;;;;5051258;28;20189;-78
2022/10/21 09:29:37;;;;;;;12.33;6.50;;;;;;;;;;5053680;28;20651;-79
2022/10/21 09:32:04;;;;;;;11.70;6.63;;;;;;;;;;5045301;28;20936;-79
2022/10/21 09:34:38;;;;;;;8.33;5.80;;;;;;;;;;5048959;28;20760;-79
2022/10/21 09:37:07;;;;;;;11.30;5.87;;;;;;;;;;5037611;28;20193;-79
2022/10/21 09:39:37;;;;;;;12.20;5.40;;;;;;;;;;5061762;28;20205;-79
2022/10/21 09:42:03;;;;;;;8.10;4.77;;;;;;;;;;5044931;28;20182;-79
2022/10/21 09:44:30;;;;;;;9.63;4.77;;;;;;;;;;5046930;28;20213;-78
2022/10/21 09:46:56;;;;;;;8.47;4.60;;;;;;;;;;5043605;28;20210;-79
2022/10/21 09:49:29;;;;;;;9.77;5.03;;;;;;;;;;5049456;28;20178;-79
2022/10/21 09:51:58;;;;;;;9.83;4.67;;;;;;;;;;5050690;28;20949;-79
2022/10/21 09:54:27;;;;;;;10.77;4.53;;;;;;;;;;5049828;28;20205;-79
2022/10/21 09:57:08;;;;;;;7.33;4.37;;;;;;;;;;5051005;28;20188;-78
2022/10/21 09:59:36;;;;;;;8.27;4.30;;;;;;;;;;5028924;28;20189;-79
2022/10/21 10:02:07;;;;;;;8.70;4.33;;;;;;;;;;5038199;28;20186;-80
2022/10/21 10:04:33;;;;;;;10.27;3.90;;;;;;;;;;5037984;28;20874;-80
2022/10/21 10:07:01;;;;;;;9.07;4.50;;;;;;;;;;5044562;28;20666;-79
2022/10/21 10:09:31;;;;;;;9.43;4.17;;;;;;;;;;5041934;28;20212;-80
2022/10/21 10:12:05;;;;;;;7.90;4.20;;;;;;;;;;5043931;28;20210;-79
2022/10/21 10:14:36;;;;;;;8.93;4.23;;;;;;;;;;5040906;28;20560;-79
2022/10/21 10:17:18;;;;;;;19.10;4.63;;;;;;;;;;5039564;28;20271;-77
2022/10/21 10:20:07;;;;;;;9.27;4.50;;;;;;;;;;5035454;28;20204;-75
2022/10/21 10:22:42;;;;;;;7.70;4.40;;;;;;;;;;5036771;28;20268;-75
2022/10/21 10:25:14;;;;;;;10.47;4.13;;;;;;;;;;5033784;28;20308;-76
2022/10/21 10:27:48;;;;;;;8.97;3.80;;;;;;;;;;5033327;28;20536;-75
2022/10/21 10:30:14;;;;;;;7.77;4.00;;;;;;;;;;5049503;28;20185;-76
2022/10/21 10:32:41;;;;;;;10.33;4.07;;;;;;;;;;5034396;28;20185;-76
2022/10/21 10:35:08;;;;;;;10.00;4.43;;;;;;;;;;5036062;28;20912;-76
2022/10/21 10:37:35;;;;;;;10.23;5.07;;;;;;;;;;5042149;28;20669;-76
2022/10/21 10:40:06;;;;;;;9.47;5.80;;;;;;;;;;5038333;28;20209;-76
2022/10/21 10:42:36;;;;;;;8.13;5.53;;;;;;;;;;5035758;28;20193;-77
2022/10/21 10:45:11;;;;;;;8.30;5.67;;;;;;;;;;5032671;28;20206;-76
2022/10/21 10:47:47;;;;;;;9.30;5.13;;;;;;;;;;5031572;28;20173;-77
2022/10/21 10:50:32;;;;;;;6.03;4.80;;;;;;;;;;5038078;28;20190;-76
2022/10/21 10:53:20;;;;;;;6.40;4.80;;;;;;;;;;5040696;28;20181;-77
2022/10/21 10:55:48;;;;;;;8.53;5.20;;;;;;;;;;5040069;28;20182;-77
2022/10/21 10:58:15;;;;;;;8.53;5.10;;;;;;;;;;5034131;28;20224;-76
2022/10/21 11:00:43;;;;;;;6.73;4.77;;;;;;;;;;5042067;28;20235;-77
2022/10/21 11:03:13;;;;;;;8.20;5.23;;;;;;;;;;5038520;28;20266;-76
2022/10/21 11:05:44;;;;;;;7.13;4.93;;;;;;;;;;5039691;28;20216;-80
2022/10/21 11:08:15;;;;;;;6.90;4.57;;;;;;;;;;5052731;28;20307;-78
2022/10/21 11:10:46;;;;;;;7.03;4.30;;;;;;;;;;5043711;28;20206;-78
2022/10/21 11:13:17;;;;;;;4.63;3.90;;;;;;;;;;5042929;28;20258;-82
2022/10/21 11:15:49;;;;;;;6.23;4.07;;;;;;;;;;5043167;28;20186;-81
2022/10/21 11:18:23;;;;;;;6.33;3.93;;;;;;;;;;5053790;28;20205;-79
2022/10/21 11:21:09;;;;;;;5.43;3.20;;;;;;;;;;5044359;28;20194;-82
2022/10/21 11:23:45;;;;;;;4.00;2.97;;;;;;;;;;5050836;28;20237;-82
2022/10/21 11:26:18;;;;;;;3.57;2.57;;;;;;;;;;5055100;28;20663;-82
2022/10/21 11:28:48;;;;;;;5.13;2.60;;;;;;;;;;5034411;28;20174;-82
2022/10/21 11:31:17;;;;;;;4.93;3.10;;;;;;;;;;5031831;28;20959;-82
2022/10/21 11:33:43;;;;;;;6.87;3.93;;;;;;;;;;5044475;28;20932;-84
2022/10/21 11:36:12;;;;;;;6.13;3.80;;;;;;;;;;5031955;28;20189;-80
2022/10/21 11:38:38;;;;;;;4.77;3.77;;;;;;;;;;5048849;28;20255;-81
2022/10/21 11:41:20;;;;;;;6.53;3.17;;;;;;;;;;5047906;28;20574;-81
2022/10/21 11:43:46;;;;;;;5.13;3.30;;;;;;;;;;5039510;28;20251;-82
2022/10/21 11:46:18;;;;;;;5.27;3.07;;;;;;;;;;5033904;28;20197;-78
2022/10/21 11:48:47;;;;;;;6.87;3.20;;;;;;;;;;5027287;28;20546;-83
2022/10/21 11:51:36;;;;;;;4.23;3.20;;;;;;;;;;5052560;28;21041;-82
2022/10/21 11:54:20;;;;;;;5.60;2.97;;;;;;;;;;5033393;28;20217;-81
2022/10/21 11:56:49;;;;;;;5.50;3.10;;;;;;;;;;5050741;28;20174;-82
2022/10/21 11:59:22;;;;;;;5.77;3.10;;;;;;;;;;5069948;28;20579;-80
2022/10/21 12:02:00;;;;;;;6.53;3.13;;;;;;;;;;5049780;28;20621;-79
2022/10/21 12:04:32;;;;;;;6.33;2.97;;;;;;;;;;5044368;28;20206;-79
2022/10/21 12:07:04;;;;;;;6.23;3.10;;;;;;;;;;5046038;28;20194;-82
2022/10/21 12:09:33;;;;;;;6.80;2.80;;;;;;;;;;5069674;28;20178;-82
2022/10/21 12:12:03;;;;;;;5.70;2.90;;;;;;;;;;5052229;28;20217;-82
2022/10/21 12:14:33;;;;;;;4.97;2.70;;;;;;;;;;5050016;28;20698;-82
2022/10/21 12:17:01;;;;;;;6.07;2.70;;;;;;;;;;5046110;28;20186;-82
2022/10/21 12:19:28;;;;;;;4.77;2.80;;;;;;;;;;5033068;28;20171;-82
2022/10/21 12:21:54;;;;;;;3.57;2.43;;;;;;;;;;5064772;28;20192;-82
2022/10/21 12:24:20;;;;;;;5.33;2.43;;;;;;;;;;5051684;28;20260;-82
2022/10/21 12:26:52;;;;;;;5.97;2.67;;;;;;;;;;5048839;28;20190;-79
2022/10/21 12:29:34;;;;;;;3.43;2.47;;;;;;;;;;5043115;28;20190;-79
2022/10/21 12:32:03;;;;;;;6.17;2.40;;;;;;;;;;5052548;28;20794;-79
2022/10/21 12:34:30;;;;;;;2.83;2.40;;;;;;;;;;5053967;28;20202;-79
2022/10/21 12:36:56;;;;;;;4.27;2.30;;;;;;;;;;5047305;28;20186;-79
2022/10/21 12:39:32;;;;;;;4.20;2.50;;;;;;;;;;5013605;28;20174;-79
2022/10/21 12:42:16;;;;;;;3.13;2.30;;;;;;;;;;5052820;28;20193;-79
2022/10/21 12:44:47;;;;;;;2.93;2.20;;;;;;;;;;5035364;28;20217;-79
2022/10/21 12:47:30;;;;;;;11.27;3.10;;;;;;;;;;5035637;28;20193;-79
2022/10/21 12:50:04;;;;;;;3.67;2.30;;;;;;;;;;5070565;28;20653;-81
2022/10/21 12:52:37;;;;;;;3.80;2.33;;;;;;;;;;5054495;28;20319;-81
2022/10/21 12:55:07;;;;;;;3.50;2.00;;;;;;;;;;5063517;28;20197;-81
2022/10/21 12:57:35;;;;;;;2.47;2.00;;;;;;;;;;5047730;28;20180;-81
2022/10/21 13:00:20;;;;;;;4.73;1.90;;;;;;;;;;5045013;28;20852;-81
2022/10/21 13:02:56;;;;;;;3.80;2.13;;;;;;;;;;5041674;28;20217;-81
2022/10/21 13:05:45;;;;;;;4.10;2.40;;;;;;;;;;5038852;28;20205;-81
2022/10/21 13:08:26;;;;;;;3.60;2.20;;;;;;;;;;5041594;28;20238;-81
2022/10/21 13:11:04;;;;;;;4.53;2.10;;;;;;;;;;5041198;28;20201;-81
2022/10/21 13:13:40;;;;;;;2.60;1.83;;;;;;;;;;5040334;28;20589;-80
2022/10/21 13:16:19;;;;;;;3.30;1.90;;;;;;;;;;5048861;28;20557;-80
2022/10/21 13:19:05;;;;;;;4.90;2.60;;;;;;;;;;5032252;28;20269;-81
2022/10/21 13:21:34;;;;;;;3.30;2.10;;;;;;;;;;5049893;28;20191;-81
2022/10/21 13:24:12;;;;;;;5.87;3.60;;;;;;;;;;5043590;28;20288;-81
2022/10/21 13:26:47;;;;;;;3.83;2.00;;;;;;;;;;5043976;28;20603;-81
2022/10/21 13:29:13;;;;;;;3.53;2.40;;;;;;;;;;5051674;28;20645;-81
2022/10/21 13:31:40;;;;;;;3.87;2.30;;;;;;;;;;5051198;28;20212;-81
2022/10/21 13:34:22;;;;;;;3.47;2.10;;;;;;;;;;5050703;28;20209;-81
2022/10/21 13:36:49;;;;;;;5.90;2.80;;;;;;;;;;5058027;28;20210;-80
2022/10/21 13:39:23;;;;;;;5.23;2.30;;;;;;;;;;5034559;28;20186;-81
2022/10/21 13:42:04;;;;;;;4.47;2.40;;;;;;;;;;5046221;28;20272;-81
2022/10/21 13:44:34;;;;;;;6.17;2.70;;;;;;;;;;5049859;28;20437;-81
2022/10/21 13:47:17;;;;;;;3.17;2.30;;;;;;;;;;5047821;28;20193;-81
2022/10/21 13:49:49;;;;;;;3.80;2.83;;;;;;;;;;5035810;28;20182;-81
2022/10/21 13:52:15;;;;;;;4.27;2.60;;;;;;;;;;5029964;28;20198;-81
2022/10/21 13:54:41;;;;;;;5.80;2.70;;;;;;;;;;5047285;28;20674;-80
2022/10/21 13:57:08;;;;;;;6.20;2.77;;;;;;;;;;5049510;28;20261;-81
2022/10/21 13:59:34;;;;;;;4.67;2.80;;;;;;;;;;5051735;28;20204;-81
2022/10/21 14:02:02;;;;;;;8.63;2.60;;;;;;;;;;5043513;28;20192;-81
2022/10/21 14:04:29;;;;;;;6.37;3.10;;;;;;;;;;5039597;28;20201;-80
2022/10/21 14:06:57;;;;;;;6.20;2.77;;;;;;;;;;5040526;28;20206;-80
2022/10/21 14:09:26;;;;;;;9.70;3.30;;;;;;;;;;5046930;28;20213;-80
2022/10/21 14:11:59;;;;;;;5.73;2.87;;;;;;;;;;5039270;28;20578;-81
2022/10/21 14:14:26;;;;;;;6.33;3.20;;;;;;;;;;5044996;28;20199;-80
2022/10/21 14:16:57;;;;;;;5.23;2.87;;;;;;;;;;5037715;28;20185;-81
2022/10/21 14:19:27;;;;;;;5.20;3.20;;;;;;;;;;5042444;28;20728;-81
2022/10/21 14:21:55;;;;;;;8.37;2.70;;;;;;;;;;5048199;28;20209;-81
2022/10/21 14:24:23;;;;;;;5.43;2.70;;;;;;;;;;5045458;28;20217;-80
2022/10/21 14:26:50;;;;;;;3.20;2.40;;;;;;;;;;5057969;28;20198;-80
2022/10/21 14:29:17;;;;;;;5.50;2.50;;;;;;;;;;5035437;28;20190;-80
2022/10/21 14:31:44;;;;;;;3.67;2.20;;;;;;;;;;5031883;28;20217;-80
2022/10/21 14:34:24;;;;;;;3.73;2.10;;;;;;;;;;5050521;28;20682;-81
2022/10/21 14:37:03;;;;;;;9.00;2.50;;;;;;;;;;5050934;28;20177;-81
2022/10/21 14:39:30;;;;;;;8.23;2.50;;;;;;;;;;5033808;28;20190;-80
2022/10/21 14:42:00;;;;;;;4.13;2.60;;;;;;;;;;5050103;28;20204;-81
2022/10/21 14:44:27;;;;;;;3.50;2.20;;;;;;;;;;5032664;28;20528;-80